ADDS METAR Data INFO
IDs: Format: Raw Decoded Include TAF

Data at: 0344 UTC 18 Oct 2017

KDAY 180256Z 00000KT 10SM CLR 12/05 A3028 RMK AO2 SLP254 T01170050 53006
KDAY 180156Z 20008KT 10SM CLR 13/05 A3027 RMK AO2 SLP250 T01280050
KDAY 180056Z 19007KT 10SM CLR 13/04 A3027 RMK AO2 SLP251 T01330044
KDAY 172356Z 19006KT 10SM CLR 14/05 A3026 RMK AO2 SLP249 T01440050 10183 20139 52001
KDAY 172256Z 18007KT 10SM FEW250 15/05 A3026 RMK AO2 SLP249 T01500050
KDAY 172156Z 21007KT 10SM FEW250 17/05 A3026 RMK AO2 SLP248 T01670050
KDAY 172056Z 21007KT 10SM FEW250 18/05 A3026 RMK AO2 SLP247 T01780050 56015
KDAY 171956Z 19009KT 10SM FEW250 18/05 A3027 RMK AO2 SLP251 T01780050
KDAY 171856Z 19012KT 10SM FEW250 18/05 A3028 RMK AO2 SLP255 T01780050
KDAY 171756Z 20013KT 10SM FEW250 17/06 A3031 RMK AO2 SLP263 T01720056 10172 20056 58020
KDAY 171656Z 24011KT 10SM FEW250 16/04 A3034 RMK AO2 SLP274 T01610044
KDAY 171556Z 22011KT 10SM FEW250 15/06 A3035 RMK AO2 SLP278 T01500056
KDAY 171456Z 22011KT 10SM FEW250 13/05 A3037 RMK AO2 SLP285 T01330050 50004
KDAY 171356Z 21008KT 10SM FEW250 10/05 A3037 RMK AO2 SLP287 T01000050
KDAY 171256Z 22007KT 10SM FEW250 08/05 A3037 RMK AO2 SLP287 T00780050
KDAY 171156Z 22006KT 10SM FEW250 06/04 A3035 RMK AO2 SLP282 T00560039 10072 20044 51009
KDAY 171056Z 22006KT 10SM CLR 06/04 A3035 RMK AO2 SLP280 T00610039
KDAY 170956Z 22005KT 10SM CLR 06/04 A3034 RMK AO2 SLP276 T00560039
KDAY 170856Z 21005KT 10SM CLR 06/04 A3032 RMK AO2 SLP271 T00610044 52007
KDAY 170756Z 21007KT 10SM CLR 07/04 A3031 RMK AO2 SLP267 T00720044
KDAY 170656Z 21006KT 10SM CLR 07/04 A3031 RMK AO2 SLP267 T00670039
KDAY 170556Z 18006KT 10SM CLR 07/03 A3030 RMK AO2 SLP263 T00720033 10106 20061 58004
KDAY 170456Z 20004KT 10SM CLR 07/03 A3031 RMK AO2 SLP264 T00720028 401560056
KDAY 170356Z 21003KT 10SM CLR 08/03 A3032 RMK AO2 SLP268 T00830033
KDAY 170256Z 21003KT 10SM R06L/3500VP6000FT CLR 09/03 A3031 RMK AO2 SLP267 T00890028 51006
KDAY 170156Z 24003KT 10SM CLR 08/03 A3031 RMK AO2 SLP268 T00830033
KDAY 170056Z 00000KT 10SM CLR 09/03 A3030 RMK AO2 SLP265 T00890033
KDAY 162356Z 29003KT 10SM CLR 11/03 A3030 RMK AO2 SLP264 T01060033 10156 20100 53004
KDAY 162256Z 34004KT 10SM FEW070 12/03 A3029 RMK AO2 SLP259 T01170033
KDAY 162156Z 33008KT 10SM FEW070 14/03 A3028 RMK AO2 SLP257 T01390028
KDAY 162056Z 32008KT 10SM SCT070 14/03 A3028 RMK AO2 SLP257 T01390033 56007
KDAY 161956Z 32010KT 10SM BKN060 14/03 A3029 RMK AO2 SLP260 T01440033
KDAY 161856Z 34011G15KT 10SM BKN055 14/04 A3029 RMK AO2 SLP260 T01390039
KDAY 161756Z 34007KT 10SM BKN045 13/04 A3031 RMK AO2 SLP265 T01280039 10150 20056 58006
KDAY 161656Z 36008KT 10SM BKN037 12/06 A3033 RMK AO2 SLP272 T01220061
KDAY 161556Z VRB04KT 10SM SCT029 13/07 A3032 RMK AO2 SLP270 T01280067